CYHE

Details ICAO CYHE
Name Hope
Region Canada
Timezone America/Vancouver (UTC-7.0)
Plans Departing 4
Arriving 6
Stats Elevation 128 ft / 39 m (AMSL)
Location 49.366699° -121.483299°
Runways 2
Magnetic Variation 15.917° E
Sunrise 2018-05-27 12:10:02 UTC / 2018-05-27 05:10:02 Local
Sunset 2018-05-28 03:59:07 UTC / 2018-05-27 20:59:07 Local
Advertisement - Login to hide

Runways

ID Width Length Bearing (true) Bearing (mag) Surface Threshold Offset Overrun Length
07 250 ft / 76 m 3,964 ft / 1,208 m 89.99° 74.07° Grass 0 ft / 0 m 0 ft / 0 m
16 65 ft / 20 m 2,002 ft / 610 m 185.00° 169.08° Gravel 0 ft / 0 m 0 ft / 0 m
25 250 ft / 76 m 3,964 ft / 1,208 m 270.01° 254.09° Grass 0 ft / 0 m 0 ft / 0 m
34 65 ft / 20 m 2,002 ft / 610 m 5.00° 349.08° Gravel 0 ft / 0 m 0 ft / 0 m

Map

Weather


0- 5 10 15 20 25 30 35+ Temperature / ° C

Clouds and Precipitation
Forecast for 2018-05-28 00:00 UTC. Updated 4 hours ago

Ground ~20,000 ft ~40,000 ft Winds

METAR

CYHE 280300Z AUTO 29008KT 250V330 9SM CLR 21/07 A3009 RMK SLP190 DENSITY ALT 600FT

TAF

Not found
Warning: Do not use this data for real-world aviation or navigation. No guarantee of current accuracy is given.